sensor_id;sensor_type;location;lat;lon;timestamp;P1;durP1;ratioP1;P2;durP2;ratioP2
67248;SDS011;63247;54.300;18.592;2022-10-16T00:00:16;157.30;;;41.53;;
67248;SDS011;63247;54.300;18.592;2022-10-16T00:02:42;167.40;;;41.57;;
67248;SDS011;63247;54.300;18.592;2022-10-16T00:05:07;158.30;;;42.17;;
67248;SDS011;63247;54.300;18.592;2022-10-16T00:07:32;156.10;;;41.20;;
67248;SDS011;63247;54.300;18.592;2022-10-16T00:09:58;156.02;;;41.38;;
67248;SDS011;63247;54.300;18.592;2022-10-16T00:12:23;153.33;;;42.57;;
67248;SDS011;63247;54.300;18.592;2022-10-16T00:14:48;144.70;;;40.30;;
67248;SDS011;63247;54.300;18.592;2022-10-16T00:17:14;160.43;;;42.27;;
67248;SDS011;63247;54.300;18.592;2022-10-16T00:19:39;148.10;;;40.23;;
67248;SDS011;63247;54.300;18.592;2022-10-16T00:22:05;155.83;;;41.90;;
67248;SDS011;63247;54.300;18.592;2022-10-16T00:24:30;148.85;;;42.65;;
67248;SDS011;63247;54.300;18.592;2022-10-16T00:26:55;149.37;;;41.77;;
67248;SDS011;63247;54.300;18.592;2022-10-16T00:29:21;143.07;;;40.70;;
67248;SDS011;63247;54.300;18.592;2022-10-16T00:31:46;140.30;;;39.00;;
67248;SDS011;63247;54.300;18.592;2022-10-16T00:34:11;144.60;;;41.93;;
67248;SDS011;63247;54.300;18.592;2022-10-16T00:36:37;140.15;;;39.25;;
67248;SDS011;63247;54.300;18.592;2022-10-16T00:39:02;134.30;;;39.13;;
67248;SDS011;63247;54.300;18.592;2022-10-16T00:41:28;135.43;;;39.67;;
67248;SDS011;63247;54.300;18.592;2022-10-16T00:43:57;142.60;;;40.63;;
67248;SDS011;63247;54.300;18.592;2022-10-16T00:46:28;126.23;;;37.43;;
67248;SDS011;63247;54.300;18.592;2022-10-16T00:49:10;135.63;;;39.08;;
67248;SDS011;63247;54.300;18.592;2022-10-16T00:51:58;126.05;;;36.00;;
67248;SDS011;63247;54.300;18.592;2022-10-16T00:54:24;129.07;;;37.30;;
67248;SDS011;63247;54.300;18.592;2022-10-16T00:56:51;129.27;;;37.67;;
67248;SDS011;63247;54.300;18.592;2022-10-16T00:59:20;118.33;;;37.47;;
67248;SDS011;63247;54.300;18.592;2022-10-16T01:01:49;124.97;;;35.78;;
67248;SDS011;63247;54.300;18.592;2022-10-16T01:04:15;122.18;;;36.58;;
67248;SDS011;63247;54.300;18.592;2022-10-16T01:12:14;119.25;;;33.40;;
67248;SDS011;63247;54.300;18.592;2022-10-16T01:26:04;107.13;;;32.03;;
67248;SDS011;63247;54.300;18.592;2022-10-16T01:28:56;108.32;;;34.05;;
67248;SDS011;63247;54.300;18.592;2022-10-16T01:31:26;107.82;;;33.80;;
67248;SDS011;63247;54.300;18.592;2022-10-16T01:36:44;104.03;;;32.63;;
67248;SDS011;63247;54.300;18.592;2022-10-16T01:39:13;100.65;;;32.17;;
67248;SDS011;63247;54.300;18.592;2022-10-16T01:41:54;97.68;;;31.58;;
67248;SDS011;63247;54.300;18.592;2022-10-16T01:44:43;100.88;;;30.75;;
67248;SDS011;63247;54.300;18.592;2022-10-16T01:47:09;96.63;;;32.20;;
67248;SDS011;63247;54.300;18.592;2022-10-16T01:49:38;94.80;;;30.53;;
67248;SDS011;63247;54.300;18.592;2022-10-16T01:52:06;90.60;;;29.67;;
67248;SDS011;63247;54.300;18.592;2022-10-16T01:54:36;90.68;;;30.35;;
67248;SDS011;63247;54.300;18.592;2022-10-16T01:57:05;85.25;;;27.80;;
67248;SDS011;63247;54.300;18.592;2022-10-16T01:59:32;77.68;;;28.02;;
67248;SDS011;63247;54.300;18.592;2022-10-16T02:02:04;81.83;;;26.63;;
67248;SDS011;63247;54.300;18.592;2022-10-16T02:04:34;75.00;;;26.23;;
67248;SDS011;63247;54.300;18.592;2022-10-16T02:07:03;70.90;;;23.80;;
67248;SDS011;63247;54.300;18.592;2022-10-16T02:09:30;65.60;;;23.30;;
67248;SDS011;63247;54.300;18.592;2022-10-16T02:11:57;57.67;;;22.92;;
67248;SDS011;63247;54.300;18.592;2022-10-16T02:14:27;55.80;;;21.70;;
67248;SDS011;63247;54.300;18.592;2022-10-16T02:16:53;52.55;;;21.30;;
67248;SDS011;63247;54.300;18.592;2022-10-16T02:19:19;50.63;;;20.53;;
67248;SDS011;63247;54.300;18.592;2022-10-16T02:21:51;53.15;;;21.10;;
67248;SDS011;63247;54.300;18.592;2022-10-16T02:24:33;50.60;;;20.08;;
67248;SDS011;63247;54.300;18.592;2022-10-16T02:27:05;54.45;;;20.70;;
67248;SDS011;63247;54.300;18.592;2022-10-16T02:29:36;56.35;;;21.77;;
67248;SDS011;63247;54.300;18.592;2022-10-16T02:32:09;56.83;;;22.20;;
67248;SDS011;63247;54.300;18.592;2022-10-16T02:34:37;60.55;;;22.27;;
67248;SDS011;63247;54.300;18.592;2022-10-16T02:37:04;54.38;;;21.75;;
67248;SDS011;63247;54.300;18.592;2022-10-16T02:39:31;57.85;;;21.00;;
67248;SDS011;63247;54.300;18.592;2022-10-16T02:41:58;51.30;;;21.35;;
67248;SDS011;63247;54.300;18.592;2022-10-16T02:44:24;61.87;;;23.63;;
67248;SDS011;63247;54.300;18.592;2022-10-16T02:46:49;54.37;;;20.97;;
67248;SDS011;63247;54.300;18.592;2022-10-16T02:49:14;59.93;;;22.77;;
67248;SDS011;63247;54.300;18.592;2022-10-16T02:51:40;60.13;;;24.17;;
67248;SDS011;63247;54.300;18.592;2022-10-16T02:54:05;62.30;;;22.88;;
67248;SDS011;63247;54.300;18.592;2022-10-16T02:56:31;60.33;;;23.17;;
67248;SDS011;63247;54.300;18.592;2022-10-16T02:58:56;59.17;;;22.70;;
67248;SDS011;63247;54.300;18.592;2022-10-16T03:01:22;59.00;;;23.10;;
67248;SDS011;63247;54.300;18.592;2022-10-16T03:03:48;56.47;;;21.55;;
67248;SDS011;63247;54.300;18.592;2022-10-16T03:06:13;60.33;;;21.97;;
67248;SDS011;63247;54.300;18.592;2022-10-16T03:08:38;57.20;;;20.20;;
67248;SDS011;63247;54.300;18.592;2022-10-16T03:11:04;62.20;;;21.23;;
67248;SDS011;63247;54.300;18.592;2022-10-16T03:13:29;54.55;;;20.13;;
67248;SDS011;63247;54.300;18.592;2022-10-16T03:15:55;60.27;;;21.80;;
67248;SDS011;63247;54.300;18.592;2022-10-16T03:18:20;60.23;;;21.43;;
67248;SDS011;63247;54.300;18.592;2022-10-16T03:20:45;57.47;;;20.37;;
67248;SDS011;63247;54.300;18.592;2022-10-16T03:23:11;57.27;;;20.40;;
67248;SDS011;63247;54.300;18.592;2022-10-16T03:25:36;57.67;;;21.20;;
67248;SDS011;63247;54.300;18.592;2022-10-16T03:28:02;60.72;;;21.42;;
67248;SDS011;63247;54.300;18.592;2022-10-16T03:30:28;58.33;;;21.57;;
67248;SDS011;63247;54.300;18.592;2022-10-16T03:32:53;58.28;;;21.55;;
67248;SDS011;63247;54.300;18.592;2022-10-16T03:35:22;57.00;;;20.33;;
67248;SDS011;63247;54.300;18.592;2022-10-16T03:37:49;55.10;;;20.33;;
67248;SDS011;63247;54.300;18.592;2022-10-16T03:40:15;59.93;;;20.97;;
67248;SDS011;63247;54.300;18.592;2022-10-16T03:42:44;59.70;;;21.67;;
67248;SDS011;63247;54.300;18.592;2022-10-16T03:45:10;49.10;;;18.05;;
67248;SDS011;63247;54.300;18.592;2022-10-16T03:47:36;57.10;;;21.45;;
67248;SDS011;63247;54.300;18.592;2022-10-16T03:50:02;54.40;;;20.07;;
67248;SDS011;63247;54.300;18.592;2022-10-16T03:52:28;55.47;;;21.05;;
67248;SDS011;63247;54.300;18.592;2022-10-16T03:54:53;51.73;;;19.70;;
67248;SDS011;63247;54.300;18.592;2022-10-16T03:57:18;56.17;;;20.50;;
67248;SDS011;63247;54.300;18.592;2022-10-16T03:59:45;52.13;;;20.25;;
67248;SDS011;63247;54.300;18.592;2022-10-16T04:02:11;53.08;;;19.95;;
67248;SDS011;63247;54.300;18.592;2022-10-16T04:04:36;55.53;;;20.43;;
67248;SDS011;63247;54.300;18.592;2022-10-16T04:07:02;56.97;;;20.97;;
67248;SDS011;63247;54.300;18.592;2022-10-16T04:09:27;58.80;;;20.67;;
67248;SDS011;63247;54.300;18.592;2022-10-16T04:11:52;54.83;;;20.97;;
67248;SDS011;63247;54.300;18.592;2022-10-16T04:14:18;55.15;;;21.35;;
67248;SDS011;63247;54.300;18.592;2022-10-16T04:16:43;60.00;;;22.25;;
67248;SDS011;63247;54.300;18.592;2022-10-16T04:19:09;55.43;;;21.50;;
67248;SDS011;63247;54.300;18.592;2022-10-16T04:21:35;64.82;;;23.25;;
67248;SDS011;63247;54.300;18.592;2022-10-16T04:24:01;56.30;;;20.97;;
67248;SDS011;63247;54.300;18.592;2022-10-16T04:26:26;55.53;;;20.60;;
67248;SDS011;63247;54.300;18.592;2022-10-16T04:28:51;57.00;;;21.33;;
67248;SDS011;63247;54.300;18.592;2022-10-16T04:31:17;58.50;;;21.33;;
67248;SDS011;63247;54.300;18.592;2022-10-16T04:33:42;58.42;;;22.17;;
67248;SDS011;63247;54.300;18.592;2022-10-16T04:36:09;58.43;;;20.93;;
67248;SDS011;63247;54.300;18.592;2022-10-16T04:38:34;60.05;;;21.75;;
67248;SDS011;63247;54.300;18.592;2022-10-16T04:40:59;60.17;;;21.17;;
67248;SDS011;63247;54.300;18.592;2022-10-16T04:43:25;59.08;;;21.40;;
67248;SDS011;63247;54.300;18.592;2022-10-16T04:45:50;62.37;;;21.87;;
67248;SDS011;63247;54.300;18.592;2022-10-16T04:48:16;65.63;;;23.93;;
67248;SDS011;63247;54.300;18.592;2022-10-16T04:50:43;67.95;;;24.27;;
67248;SDS011;63247;54.300;18.592;2022-10-16T04:53:08;69.63;;;23.33;;
67248;SDS011;63247;54.300;18.592;2022-10-16T04:55:33;61.88;;;23.20;;
67248;SDS011;63247;54.300;18.592;2022-10-16T04:57:59;61.83;;;23.35;;
67248;SDS011;63247;54.300;18.592;2022-10-16T05:00:25;67.77;;;22.87;;
67248;SDS011;63247;54.300;18.592;2022-10-16T05:02:50;65.00;;;23.98;;
67248;SDS011;63247;54.300;18.592;2022-10-16T05:05:16;73.50;;;25.97;;
67248;SDS011;63247;54.300;18.592;2022-10-16T05:07:44;65.32;;;23.83;;
67248;SDS011;63247;54.300;18.592;2022-10-16T05:10:10;73.18;;;26.10;;
67248;SDS011;63247;54.300;18.592;2022-10-16T05:12:35;74.43;;;27.13;;
67248;SDS011;63247;54.300;18.592;2022-10-16T05:15:00;72.30;;;25.53;;
67248;SDS011;63247;54.300;18.592;2022-10-16T05:17:26;74.40;;;25.33;;
67248;SDS011;63247;54.300;18.592;2022-10-16T05:19:51;76.60;;;27.53;;
67248;SDS011;63247;54.300;18.592;2022-10-16T05:22:17;74.77;;;26.30;;
67248;SDS011;63247;54.300;18.592;2022-10-16T05:24:42;72.63;;;26.60;;
67248;SDS011;63247;54.300;18.592;2022-10-16T05:27:08;74.27;;;27.40;;
67248;SDS011;63247;54.300;18.592;2022-10-16T05:29:33;73.30;;;26.23;;
67248;SDS011;63247;54.300;18.592;2022-10-16T05:31:58;75.43;;;26.73;;
67248;SDS011;63247;54.300;18.592;2022-10-16T05:34:24;76.25;;;27.60;;
67248;SDS011;63247;54.300;18.592;2022-10-16T05:36:49;72.53;;;28.58;;
67248;SDS011;63247;54.300;18.592;2022-10-16T05:39:15;81.87;;;29.73;;
67248;SDS011;63247;54.300;18.592;2022-10-16T05:41:41;68.68;;;26.55;;
67248;SDS011;63247;54.300;18.592;2022-10-16T05:44:06;73.53;;;26.20;;
67248;SDS011;63247;54.300;18.592;2022-10-16T05:46:32;74.33;;;28.57;;
67248;SDS011;63247;54.300;18.592;2022-10-16T05:48:58;69.68;;;28.90;;
67248;SDS011;63247;54.300;18.592;2022-10-16T05:51:23;71.53;;;26.90;;
67248;SDS011;63247;54.300;18.592;2022-10-16T05:53:49;73.18;;;28.65;;
67248;SDS011;63247;54.300;18.592;2022-10-16T05:56:14;69.83;;;28.60;;
67248;SDS011;63247;54.300;18.592;2022-10-16T05:58:40;74.20;;;27.33;;
67248;SDS011;63247;54.300;18.592;2022-10-16T06:01:07;69.82;;;27.20;;
67248;SDS011;63247;54.300;18.592;2022-10-16T06:03:35;73.15;;;27.77;;
67248;SDS011;63247;54.300;18.592;2022-10-16T06:06:07;69.57;;;28.83;;
67248;SDS011;63247;54.300;18.592;2022-10-16T06:08:34;64.73;;;25.37;;
67248;SDS011;63247;54.300;18.592;2022-10-16T06:11:07;74.13;;;28.10;;
67248;SDS011;63247;54.300;18.592;2022-10-16T06:13:34;64.63;;;25.60;;
67248;SDS011;63247;54.300;18.592;2022-10-16T06:16:00;68.25;;;26.17;;
67248;SDS011;63247;54.300;18.592;2022-10-16T06:18:26;70.57;;;28.13;;
67248;SDS011;63247;54.300;18.592;2022-10-16T06:20:53;68.93;;;26.83;;
67248;SDS011;63247;54.300;18.592;2022-10-16T06:23:19;69.20;;;26.65;;
67248;SDS011;63247;54.300;18.592;2022-10-16T06:25:45;69.37;;;27.37;;
67248;SDS011;63247;54.300;18.592;2022-10-16T06:28:10;71.50;;;28.20;;
67248;SDS011;63247;54.300;18.592;2022-10-16T06:30:36;66.27;;;27.80;;
67248;SDS011;63247;54.300;18.592;2022-10-16T06:33:01;68.85;;;27.75;;
67248;SDS011;63247;54.300;18.592;2022-10-16T06:35:27;70.47;;;28.30;;
67248;SDS011;63247;54.300;18.592;2022-10-16T06:37:54;70.47;;;28.38;;
67248;SDS011;63247;54.300;18.592;2022-10-16T06:40:19;66.53;;;27.03;;
67248;SDS011;63247;54.300;18.592;2022-10-16T06:42:45;62.83;;;26.80;;
67248;SDS011;63247;54.300;18.592;2022-10-16T06:45:10;64.67;;;26.87;;
67248;SDS011;63247;54.300;18.592;2022-10-16T06:47:35;64.53;;;27.77;;
67248;SDS011;63247;54.300;18.592;2022-10-16T06:50:01;66.60;;;27.67;;
67248;SDS011;63247;54.300;18.592;2022-10-16T06:52:29;64.53;;;26.52;;
67248;SDS011;63247;54.300;18.592;2022-10-16T06:54:54;67.25;;;26.40;;
67248;SDS011;63247;54.300;18.592;2022-10-16T06:57:20;64.50;;;28.17;;
67248;SDS011;63247;54.300;18.592;2022-10-16T06:59:45;68.68;;;28.00;;
67248;SDS011;63247;54.300;18.592;2022-10-16T07:02:11;69.90;;;27.63;;
67248;SDS011;63247;54.300;18.592;2022-10-16T07:04:36;64.80;;;27.70;;
67248;SDS011;63247;54.300;18.592;2022-10-16T07:07:02;64.10;;;26.80;;
67248;SDS011;63247;54.300;18.592;2022-10-16T07:09:27;66.38;;;26.95;;
67248;SDS011;63247;54.300;18.592;2022-10-16T07:11:53;59.47;;;25.03;;
67248;SDS011;63247;54.300;18.592;2022-10-16T07:14:19;57.67;;;25.20;;
67248;SDS011;63247;54.300;18.592;2022-10-16T07:16:45;62.42;;;25.35;;
67248;SDS011;63247;54.300;18.592;2022-10-16T07:19:11;60.67;;;25.75;;
67248;SDS011;63247;54.300;18.592;2022-10-16T07:21:39;59.73;;;25.57;;
67248;SDS011;63247;54.300;18.592;2022-10-16T07:24:06;60.28;;;26.10;;
67248;SDS011;63247;54.300;18.592;2022-10-16T07:26:35;54.40;;;26.10;;
67248;SDS011;63247;54.300;18.592;2022-10-16T07:29:02;55.72;;;25.05;;
67248;SDS011;63247;54.300;18.592;2022-10-16T07:31:28;58.47;;;24.17;;
67248;SDS011;63247;54.300;18.592;2022-10-16T07:33:53;55.93;;;23.80;;
67248;SDS011;63247;54.300;18.592;2022-10-16T07:36:19;61.22;;;25.15;;
67248;SDS011;63247;54.300;18.592;2022-10-16T07:38:46;58.63;;;24.80;;
67248;SDS011;63247;54.300;18.592;2022-10-16T07:41:16;57.45;;;23.98;;
67248;SDS011;63247;54.300;18.592;2022-10-16T07:43:49;57.85;;;24.88;;
67248;SDS011;63247;54.300;18.592;2022-10-16T07:46:16;57.95;;;25.42;;
67248;SDS011;63247;54.300;18.592;2022-10-16T07:48:43;59.72;;;25.38;;
67248;SDS011;63247;54.300;18.592;2022-10-16T07:51:12;56.47;;;25.43;;
67248;SDS011;63247;54.300;18.592;2022-10-16T07:53:38;55.72;;;23.30;;
67248;SDS011;63247;54.300;18.592;2022-10-16T07:56:04;56.15;;;24.30;;
67248;SDS011;63247;54.300;18.592;2022-10-16T07:58:31;54.00;;;23.40;;
67248;SDS011;63247;54.300;18.592;2022-10-16T08:00:57;53.10;;;23.48;;
67248;SDS011;63247;54.300;18.592;2022-10-16T08:03:24;54.35;;;24.02;;
67248;SDS011;63247;54.300;18.592;2022-10-16T08:05:50;52.65;;;21.92;;
67248;SDS011;63247;54.300;18.592;2022-10-16T08:08:16;52.53;;;24.13;;
67248;SDS011;63247;54.300;18.592;2022-10-16T08:10:43;54.78;;;23.65;;
67248;SDS011;63247;54.300;18.592;2022-10-16T08:13:09;55.83;;;22.17;;
67248;SDS011;63247;54.300;18.592;2022-10-16T08:15:34;52.28;;;23.63;;
67248;SDS011;63247;54.300;18.592;2022-10-16T08:18:04;52.70;;;24.60;;
67248;SDS011;63247;54.300;18.592;2022-10-16T08:20:30;51.55;;;22.85;;
67248;SDS011;63247;54.300;18.592;2022-10-16T08:22:57;54.67;;;23.67;;
67248;SDS011;63247;54.300;18.592;2022-10-16T08:25:22;54.03;;;23.27;;
67248;SDS011;63247;54.300;18.592;2022-10-16T08:27:48;48.78;;;22.55;;
67248;SDS011;63247;54.300;18.592;2022-10-16T08:30:14;49.75;;;21.38;;
67248;SDS011;63247;54.300;18.592;2022-10-16T08:32:40;51.00;;;23.05;;
67248;SDS011;63247;54.300;18.592;2022-10-16T08:35:09;51.45;;;24.38;;
67248;SDS011;63247;54.300;18.592;2022-10-16T08:37:36;51.42;;;23.02;;
67248;SDS011;63247;54.300;18.592;2022-10-16T08:40:02;53.27;;;23.67;;
67248;SDS011;63247;54.300;18.592;2022-10-16T08:45:32;53.72;;;24.05;;
67248;SDS011;63247;54.300;18.592;2022-10-16T08:48:27;50.35;;;21.13;;
67248;SDS011;63247;54.300;18.592;2022-10-16T08:51:07;50.38;;;23.35;;
67248;SDS011;63247;54.300;18.592;2022-10-16T08:54:19;52.80;;;24.07;;
67248;SDS011;63247;54.300;18.592;2022-10-16T08:56:27;50.28;;;21.63;;
67248;SDS011;63247;54.300;18.592;2022-10-16T08:58:53;49.58;;;22.50;;
67248;SDS011;63247;54.300;18.592;2022-10-16T09:01:21;51.22;;;21.92;;
67248;SDS011;63247;54.300;18.592;2022-10-16T09:06:50;48.25;;;21.55;;
67248;SDS011;63247;54.300;18.592;2022-10-16T09:11:51;48.08;;;21.15;;
67248;SDS011;63247;54.300;18.592;2022-10-16T09:17:04;44.13;;;20.77;;
67248;SDS011;63247;54.300;18.592;2022-10-16T09:19:44;44.15;;;20.38;;
67248;SDS011;63247;54.300;18.592;2022-10-16T09:22:31;43.22;;;19.75;;
67248;SDS011;63247;54.300;18.592;2022-10-16T09:24:59;43.67;;;21.08;;
67248;SDS011;63247;54.300;18.592;2022-10-16T09:27:34;42.28;;;20.40;;
67248;SDS011;63247;54.300;18.592;2022-10-16T09:30:00;41.10;;;19.83;;
67248;SDS011;63247;54.300;18.592;2022-10-16T09:32:25;40.47;;;19.87;;
67248;SDS011;63247;54.300;18.592;2022-10-16T09:34:53;44.03;;;19.70;;
67248;SDS011;63247;54.300;18.592;2022-10-16T09:37:23;42.10;;;19.92;;
67248;SDS011;63247;54.300;18.592;2022-10-16T09:39:51;40.55;;;19.60;;
67248;SDS011;63247;54.300;18.592;2022-10-16T09:42:27;42.67;;;19.77;;
67248;SDS011;63247;54.300;18.592;2022-10-16T09:44:56;37.90;;;19.15;;
67248;SDS011;63247;54.300;18.592;2022-10-16T09:47:28;41.03;;;19.20;;
67248;SDS011;63247;54.300;18.592;2022-10-16T09:50:02;39.65;;;19.42;;
67248;SDS011;63247;54.300;18.592;2022-10-16T09:52:38;41.57;;;19.07;;
67248;SDS011;63247;54.300;18.592;2022-10-16T09:55:13;38.58;;;18.42;;
67248;SDS011;63247;54.300;18.592;2022-10-16T09:57:50;35.23;;;16.87;;
67248;SDS011;63247;54.300;18.592;2022-10-16T10:00:16;37.88;;;18.67;;
67248;SDS011;63247;54.300;18.592;2022-10-16T10:02:43;34.88;;;17.42;;
67248;SDS011;63247;54.300;18.592;2022-10-16T10:05:30;36.93;;;17.93;;
67248;SDS011;63247;54.300;18.592;2022-10-16T10:07:55;36.80;;;18.92;;
67248;SDS011;63247;54.300;18.592;2022-10-16T10:10:26;37.38;;;18.48;;
67248;SDS011;63247;54.300;18.592;2022-10-16T10:12:53;37.53;;;17.30;;
67248;SDS011;63247;54.300;18.592;2022-10-16T10:15:20;37.30;;;18.65;;
67248;SDS011;63247;54.300;18.592;2022-10-16T10:17:49;39.17;;;18.53;;
67248;SDS011;63247;54.300;18.592;2022-10-16T10:22:57;36.97;;;18.02;;
67248;SDS011;63247;54.300;18.592;2022-10-16T10:28:15;38.30;;;17.60;;
67248;SDS011;63247;54.300;18.592;2022-10-16T10:33:46;38.70;;;19.98;;
67248;SDS011;63247;54.300;18.592;2022-10-16T10:39:00;34.92;;;17.15;;
67248;SDS011;63247;54.300;18.592;2022-10-16T10:46:49;33.97;;;16.50;;
67248;SDS011;63247;54.300;18.592;2022-10-16T10:52:13;34.70;;;18.08;;
67248;SDS011;63247;54.300;18.592;2022-10-16T11:03:42;32.45;;;16.27;;
67248;SDS011;63247;54.300;18.592;2022-10-16T11:06:11;37.35;;;17.75;;
67248;SDS011;63247;54.300;18.592;2022-10-16T11:08:43;36.92;;;17.45;;
67248;SDS011;63247;54.300;18.592;2022-10-16T11:13:40;34.70;;;16.23;;
67248;SDS011;63247;54.300;18.592;2022-10-16T11:16:27;31.95;;;15.93;;
67248;SDS011;63247;54.300;18.592;2022-10-16T11:18:59;31.73;;;16.50;;
67248;SDS011;63247;54.300;18.592;2022-10-16T11:22:00;32.35;;;16.10;;
67248;SDS011;63247;54.300;18.592;2022-10-16T11:24:37;29.40;;;15.70;;
67248;SDS011;63247;54.300;18.592;2022-10-16T11:27:12;28.92;;;15.20;;
67248;SDS011;63247;54.300;18.592;2022-10-16T11:29:53;29.65;;;16.00;;
67248;SDS011;63247;54.300;18.592;2022-10-16T11:32:29;28.98;;;14.40;;
67248;SDS011;63247;54.300;18.592;2022-10-16T11:35:10;29.33;;;15.50;;
67248;SDS011;63247;54.300;18.592;2022-10-16T11:37:50;27.30;;;15.25;;
67248;SDS011;63247;54.300;18.592;2022-10-16T11:40:52;33.58;;;15.30;;
67248;SDS011;63247;54.300;18.592;2022-10-16T11:45:51;27.67;;;14.15;;
67248;SDS011;63247;54.300;18.592;2022-10-16T11:51:31;30.65;;;15.40;;
67248;SDS011;63247;54.300;18.592;2022-10-16T11:54:07;25.10;;;13.65;;
67248;SDS011;63247;54.300;18.592;2022-10-16T11:56:41;27.08;;;14.43;;
67248;SDS011;63247;54.300;18.592;2022-10-16T11:59:22;25.23;;;14.45;;
67248;SDS011;63247;54.300;18.592;2022-10-16T12:07:24;22.58;;;13.15;;
67248;SDS011;63247;54.300;18.592;2022-10-16T12:09:57;21.05;;;12.32;;
67248;SDS011;63247;54.300;18.592;2022-10-16T12:15:01;21.95;;;12.63;;
67248;SDS011;63247;54.300;18.592;2022-10-16T12:17:42;20.80;;;11.02;;
67248;SDS011;63247;54.300;18.592;2022-10-16T12:28:32;16.63;;;10.70;;
67248;SDS011;63247;54.300;18.592;2022-10-16T12:31:04;21.75;;;11.07;;
67248;SDS011;63247;54.300;18.592;2022-10-16T12:33:35;17.15;;;10.55;;
67248;SDS011;63247;54.300;18.592;2022-10-16T12:36:45;17.33;;;10.43;;
67248;SDS011;63247;54.300;18.592;2022-10-16T12:38:59;17.92;;;10.68;;
67248;SDS011;63247;54.300;18.592;2022-10-16T12:41:29;17.88;;;10.35;;
67248;SDS011;63247;54.300;18.592;2022-10-16T12:43:56;18.30;;;10.90;;
67248;SDS011;63247;54.300;18.592;2022-10-16T12:51:38;16.83;;;9.43;;
67248;SDS011;63247;54.300;18.592;2022-10-16T13:02:08;14.07;;;8.95;;
67248;SDS011;63247;54.300;18.592;2022-10-16T13:05:08;14.25;;;8.40;;
67248;SDS011;63247;54.300;18.592;2022-10-16T13:18:32;11.57;;;6.97;;
67248;SDS011;63247;54.300;18.592;2022-10-16T13:26:56;12.88;;;7.47;;
67248;SDS011;63247;54.300;18.592;2022-10-16T13:29:44;13.02;;;7.72;;
67248;SDS011;63247;54.300;18.592;2022-10-16T13:32:11;13.75;;;8.25;;
67248;SDS011;63247;54.300;18.592;2022-10-16T13:34:44;12.07;;;7.50;;
67248;SDS011;63247;54.300;18.592;2022-10-16T13:37:21;13.80;;;8.60;;
67248;SDS011;63247;54.300;18.592;2022-10-16T13:39:50;14.32;;;8.45;;
67248;SDS011;63247;54.300;18.592;2022-10-16T13:44:54;12.73;;;7.90;;
67248;SDS011;63247;54.300;18.592;2022-10-16T13:47:22;15.38;;;8.27;;
67248;SDS011;63247;54.300;18.592;2022-10-16T13:49:58;14.40;;;8.40;;
67248;SDS011;63247;54.300;18.592;2022-10-16T13:52:28;15.55;;;8.00;;
67248;SDS011;63247;54.300;18.592;2022-10-16T13:54:54;13.38;;;8.25;;
67248;SDS011;63247;54.300;18.592;2022-10-16T13:57:21;12.83;;;8.00;;
67248;SDS011;63247;54.300;18.592;2022-10-16T13:59:48;18.25;;;9.45;;
67248;SDS011;63247;54.300;18.592;2022-10-16T14:02:19;17.97;;;9.77;;
67248;SDS011;63247;54.300;18.592;2022-10-16T14:04:51;15.60;;;8.73;;
67248;SDS011;63247;54.300;18.592;2022-10-16T14:07:23;15.40;;;9.18;;
67248;SDS011;63247;54.300;18.592;2022-10-16T14:09:50;15.18;;;9.75;;
67248;SDS011;63247;54.300;18.592;2022-10-16T14:12:17;16.25;;;9.38;;
67248;SDS011;63247;54.300;18.592;2022-10-16T14:14:43;16.75;;;9.85;;
67248;SDS011;63247;54.300;18.592;2022-10-16T14:17:29;15.43;;;9.02;;
67248;SDS011;63247;54.300;18.592;2022-10-16T14:19:58;19.33;;;10.18;;
67248;SDS011;63247;54.300;18.592;2022-10-16T14:28:00;17.98;;;9.77;;
67248;SDS011;63247;54.300;18.592;2022-10-16T14:30:26;15.77;;;9.63;;
67248;SDS011;63247;54.300;18.592;2022-10-16T14:33:02;15.70;;;9.93;;
67248;SDS011;63247;54.300;18.592;2022-10-16T14:35:31;15.98;;;9.20;;
67248;SDS011;63247;54.300;18.592;2022-10-16T14:38:04;20.27;;;11.37;;
67248;SDS011;63247;54.300;18.592;2022-10-16T14:40:32;21.05;;;12.40;;
67248;SDS011;63247;54.300;18.592;2022-10-16T14:43:03;19.92;;;11.23;;
67248;SDS011;63247;54.300;18.592;2022-10-16T14:45:30;20.33;;;11.68;;
67248;SDS011;63247;54.300;18.592;2022-10-16T14:48:01;19.63;;;11.35;;
67248;SDS011;63247;54.300;18.592;2022-10-16T14:50:30;17.53;;;10.47;;
67248;SDS011;63247;54.300;18.592;2022-10-16T14:52:56;17.30;;;10.80;;
67248;SDS011;63247;54.300;18.592;2022-10-16T14:55:21;18.27;;;10.75;;
67248;SDS011;63247;54.300;18.592;2022-10-16T14:57:47;17.27;;;10.77;;
67248;SDS011;63247;54.300;18.592;2022-10-16T15:00:15;19.65;;;11.23;;
67248;SDS011;63247;54.300;18.592;2022-10-16T15:02:43;23.50;;;12.35;;
67248;SDS011;63247;54.300;18.592;2022-10-16T15:05:20;20.52;;;11.88;;
67248;SDS011;63247;54.300;18.592;2022-10-16T15:07:46;18.95;;;11.27;;
67248;SDS011;63247;54.300;18.592;2022-10-16T15:10:13;18.77;;;10.88;;
67248;SDS011;63247;54.300;18.592;2022-10-16T15:12:39;17.10;;;10.00;;
67248;SDS011;63247;54.300;18.592;2022-10-16T15:17:52;19.67;;;11.27;;
67248;SDS011;63247;54.300;18.592;2022-10-16T15:20:21;18.17;;;10.75;;
67248;SDS011;63247;54.300;18.592;2022-10-16T15:22:46;18.67;;;11.00;;
67248;SDS011;63247;54.300;18.592;2022-10-16T15:25:29;19.73;;;11.50;;
67248;SDS011;63247;54.300;18.592;2022-10-16T15:28:00;21.40;;;11.43;;
67248;SDS011;63247;54.300;18.592;2022-10-16T15:30:27;22.45;;;12.20;;
67248;SDS011;63247;54.300;18.592;2022-10-16T15:32:52;22.50;;;12.50;;
67248;SDS011;63247;54.300;18.592;2022-10-16T15:35:18;20.67;;;11.90;;
67248;SDS011;63247;54.300;18.592;2022-10-16T15:37:45;24.53;;;13.20;;
67248;SDS011;63247;54.300;18.592;2022-10-16T15:40:11;22.17;;;12.60;;
67248;SDS011;63247;54.300;18.592;2022-10-16T15:42:37;23.63;;;12.37;;
67248;SDS011;63247;54.300;18.592;2022-10-16T15:45:02;21.97;;;12.53;;
67248;SDS011;63247;54.300;18.592;2022-10-16T15:47:28;23.77;;;13.20;;
67248;SDS011;63247;54.300;18.592;2022-10-16T15:49:54;27.20;;;14.55;;
67248;SDS011;63247;54.300;18.592;2022-10-16T15:52:20;24.73;;;12.43;;
67248;SDS011;63247;54.300;18.592;2022-10-16T15:54:45;26.67;;;12.60;;
67248;SDS011;63247;54.300;18.592;2022-10-16T15:57:10;27.23;;;12.67;;
67248;SDS011;63247;54.300;18.592;2022-10-16T15:59:36;26.00;;;13.77;;
67248;SDS011;63247;54.300;18.592;2022-10-16T16:02:01;31.43;;;17.97;;
67248;SDS011;63247;54.300;18.592;2022-10-16T16:04:29;77.63;;;49.07;;
67248;SDS011;63247;54.300;18.592;2022-10-16T16:06:56;63.03;;;39.03;;
67248;SDS011;63247;54.300;18.592;2022-10-16T16:09:21;40.28;;;22.88;;
67248;SDS011;63247;54.300;18.592;2022-10-16T16:11:47;35.77;;;16.73;;
67248;SDS011;63247;54.300;18.592;2022-10-16T16:14:12;65.47;;;24.23;;
67248;SDS011;63247;54.300;18.592;2022-10-16T16:16:38;50.92;;;23.65;;
67248;SDS011;63247;54.300;18.592;2022-10-16T16:19:04;31.93;;;17.33;;
67248;SDS011;63247;54.300;18.592;2022-10-16T16:21:31;30.45;;;17.48;;